メキシコシティ の空港の天気 - METARとTAF

メキシコ・シティ国際空港 ( MMMX / MEX ) - メキシコ メキシコシティ
飛行場実況気象(Metar)
観測時間02/17 07:46 CST (02/17 13:46 UTC)
風向・風速静穏 0m/s
視程10km以上
天気現象
なし
気温16℃
湿度51%
気圧1025hPa
METARMMMX 171346Z 00000KT 12SM SKC 16/06 A3027 NOSIG
過去の天気等 Google飛行場航空写真 Wunderground天気予報

過去48時間のMETAR

飛行場予報(TAF)
発表時間: 2/17 03:58 CST (2/17 09:58 UTC)
予報対象時間: 17日6時 CST ~ 18日12時 CST
風向・風速静穏
視程10km以上
なし
17日12時 CST から
風向・風速南西 5m/s
視程10km以上
全天の4割程度の雲 雲底高度 760m
18日0時 CST から
風向・風速東南東 3m/s
視程10km以上
なし
18日4時 CST ~ 18日6時 CST に徐々に
風向・風速静穏
TAF MMMX 170958Z 1712/1818 00000KT P6SM SKC TX28/1721Z TN15/1712Z
FM171800 22010KT P6SM SCT025
FM180600 12005KT P6SM SKC
BECMG 1810/1812 00000KT